sensor_id;sensor_type;location;lat;lon;timestamp;P1;durP1;ratioP1;P2;durP2;ratioP2
37305;SDS011;23193;42.656;21.170;2022-12-11T00:00:03;1.50;;;0.73;;
37305;SDS011;23193;42.656;21.170;2022-12-11T00:02:30;0.85;;;0.50;;
37305;SDS011;23193;42.656;21.170;2022-12-11T00:04:56;2.78;;;1.15;;
37305;SDS011;23193;42.656;21.170;2022-12-11T00:07:22;2.72;;;1.30;;
37305;SDS011;23193;42.656;21.170;2022-12-11T00:09:48;13.65;;;8.77;;
37305;SDS011;23193;42.656;21.170;2022-12-11T00:12:14;5.50;;;2.60;;
37305;SDS011;23193;42.656;21.170;2022-12-11T00:14:40;3.33;;;2.20;;
37305;SDS011;23193;42.656;21.170;2022-12-11T00:17:06;3.58;;;1.73;;
37305;SDS011;23193;42.656;21.170;2022-12-11T00:19:32;4.47;;;1.10;;
37305;SDS011;23193;42.656;21.170;2022-12-11T00:21:58;4.63;;;1.48;;
37305;SDS011;23193;42.656;21.170;2022-12-11T00:24:24;11.60;;;6.15;;
37305;SDS011;23193;42.656;21.170;2022-12-11T00:26:50;2.05;;;0.93;;
37305;SDS011;23193;42.656;21.170;2022-12-11T00:29:16;2.75;;;1.30;;
37305;SDS011;23193;42.656;21.170;2022-12-11T00:31:42;6.00;;;1.23;;
37305;SDS011;23193;42.656;21.170;2022-12-11T00:34:08;1.55;;;0.65;;
37305;SDS011;23193;42.656;21.170;2022-12-11T00:36:36;1.80;;;1.05;;
37305;SDS011;23193;42.656;21.170;2022-12-11T00:39:03;1.40;;;0.50;;
37305;SDS011;23193;42.656;21.170;2022-12-11T00:41:29;3.35;;;0.75;;
37305;SDS011;23193;42.656;21.170;2022-12-11T00:43:55;2.70;;;0.77;;
37305;SDS011;23193;42.656;21.170;2022-12-11T00:46:21;2.20;;;0.90;;
37305;SDS011;23193;42.656;21.170;2022-12-11T00:48:47;1.45;;;0.90;;
37305;SDS011;23193;42.656;21.170;2022-12-11T00:51:15;1.65;;;0.80;;
37305;SDS011;23193;42.656;21.170;2022-12-11T00:53:41;1.27;;;0.80;;
37305;SDS011;23193;42.656;21.170;2022-12-11T00:56:08;1.58;;;0.80;;
37305;SDS011;23193;42.656;21.170;2022-12-11T00:58:34;2.28;;;0.80;;
37305;SDS011;23193;42.656;21.170;2022-12-11T01:01:11;6.15;;;1.35;;
37305;SDS011;23193;42.656;21.170;2022-12-11T01:03:37;1.88;;;0.90;;
37305;SDS011;23193;42.656;21.170;2022-12-11T01:06:04;2.45;;;0.90;;
37305;SDS011;23193;42.656;21.170;2022-12-11T01:08:30;2.00;;;0.73;;
37305;SDS011;23193;42.656;21.170;2022-12-11T01:11:03;0.80;;;0.60;;
37305;SDS011;23193;42.656;21.170;2022-12-11T01:13:29;6.07;;;0.80;;
37305;SDS011;23193;42.656;21.170;2022-12-11T01:15:55;0.35;;;0.32;;
37305;SDS011;23193;42.656;21.170;2022-12-11T01:18:21;0.98;;;0.50;;
37305;SDS011;23193;42.656;21.170;2022-12-11T01:20:47;0.38;;;0.35;;
37305;SDS011;23193;42.656;21.170;2022-12-11T01:23:13;1.05;;;0.60;;
37305;SDS011;23193;42.656;21.170;2022-12-11T01:25:40;0.43;;;0.40;;
37305;SDS011;23193;42.656;21.170;2022-12-11T01:28:06;1.48;;;0.50;;
37305;SDS011;23193;42.656;21.170;2022-12-11T01:30:33;0.30;;;0.30;;
37305;SDS011;23193;42.656;21.170;2022-12-11T01:32:59;0.38;;;0.30;;
37305;SDS011;23193;42.656;21.170;2022-12-11T01:35:26;0.63;;;0.40;;
37305;SDS011;23193;42.656;21.170;2022-12-11T01:37:52;0.20;;;0.20;;
37305;SDS011;23193;42.656;21.170;2022-12-11T01:40:19;1.23;;;0.63;;
37305;SDS011;23193;42.656;21.170;2022-12-11T01:42:45;1.95;;;0.93;;
37305;SDS011;23193;42.656;21.170;2022-12-11T01:47:47;0.55;;;0.43;;
37305;SDS011;23193;42.656;21.170;2022-12-11T01:50:13;0.98;;;0.45;;
37305;SDS011;23193;42.656;21.170;2022-12-11T01:52:40;4.25;;;0.40;;
37305;SDS011;23193;42.656;21.170;2022-12-11T01:55:07;0.30;;;0.30;;
37305;SDS011;23193;42.656;21.170;2022-12-11T01:57:33;0.30;;;0.30;;
37305;SDS011;23193;42.656;21.170;2022-12-11T02:00:00;1.02;;;0.50;;
37305;SDS011;23193;42.656;21.170;2022-12-11T02:02:28;0.85;;;0.70;;
37305;SDS011;23193;42.656;21.170;2022-12-11T02:04:55;0.32;;;0.30;;
37305;SDS011;23193;42.656;21.170;2022-12-11T02:07:21;0.68;;;0.30;;
37305;SDS011;23193;42.656;21.170;2022-12-11T02:09:47;1.58;;;0.50;;
37305;SDS011;23193;42.656;21.170;2022-12-11T02:12:25;1.00;;;0.38;;
37305;SDS011;23193;42.656;21.170;2022-12-11T02:15:02;1.15;;;0.40;;
37305;SDS011;23193;42.656;21.170;2022-12-11T02:27:50;1.55;;;0.80;;
37305;SDS011;23193;42.656;21.170;2022-12-11T02:30:20;2.42;;;1.00;;
37305;SDS011;23193;42.656;21.170;2022-12-11T02:35:18;1.90;;;0.60;;
37305;SDS011;23193;42.656;21.170;2022-12-11T02:37:45;1.42;;;0.82;;
37305;SDS011;23193;42.656;21.170;2022-12-11T02:40:12;3.22;;;0.77;;
37305;SDS011;23193;42.656;21.170;2022-12-11T02:42:42;1.30;;;1.02;;
37305;SDS011;23193;42.656;21.170;2022-12-11T02:45:08;1.73;;;1.10;;
37305;SDS011;23193;42.656;21.170;2022-12-11T02:47:34;1.60;;;1.00;;
37305;SDS011;23193;42.656;21.170;2022-12-11T02:50:02;3.67;;;1.83;;
37305;SDS011;23193;42.656;21.170;2022-12-11T02:52:31;4.68;;;1.83;;
37305;SDS011;23193;42.656;21.170;2022-12-11T02:54:57;3.70;;;1.90;;
37305;SDS011;23193;42.656;21.170;2022-12-11T02:57:32;3.15;;;1.55;;
37305;SDS011;23193;42.656;21.170;2022-12-11T03:00:00;1.45;;;1.17;;
37305;SDS011;23193;42.656;21.170;2022-12-11T03:02:26;7.18;;;1.33;;
37305;SDS011;23193;42.656;21.170;2022-12-11T03:04:52;1.80;;;0.80;;
37305;SDS011;23193;42.656;21.170;2022-12-11T03:07:23;1.33;;;1.00;;
37305;SDS011;23193;42.656;21.170;2022-12-11T03:09:50;1.90;;;0.85;;
37305;SDS011;23193;42.656;21.170;2022-12-11T03:12:18;2.03;;;1.13;;
37305;SDS011;23193;42.656;21.170;2022-12-11T03:14:45;1.55;;;1.08;;
37305;SDS011;23193;42.656;21.170;2022-12-11T03:17:23;2.08;;;1.20;;
37305;SDS011;23193;42.656;21.170;2022-12-11T03:20:06;1.48;;;0.93;;
37305;SDS011;23193;42.656;21.170;2022-12-11T03:25:06;3.10;;;1.02;;
37305;SDS011;23193;42.656;21.170;2022-12-11T03:27:53;2.83;;;1.20;;
37305;SDS011;23193;42.656;21.170;2022-12-11T03:30:21;2.65;;;1.00;;
37305;SDS011;23193;42.656;21.170;2022-12-11T03:35:18;2.90;;;1.38;;
37305;SDS011;23193;42.656;21.170;2022-12-11T03:37:45;4.05;;;1.17;;
37305;SDS011;23193;42.656;21.170;2022-12-11T03:40:13;3.17;;;1.65;;
37305;SDS011;23193;42.656;21.170;2022-12-11T03:42:41;4.70;;;1.98;;
37305;SDS011;23193;42.656;21.170;2022-12-11T03:45:09;5.72;;;1.35;;
37305;SDS011;23193;42.656;21.170;2022-12-11T03:47:36;2.72;;;1.00;;
37305;SDS011;23193;42.656;21.170;2022-12-11T03:50:04;5.00;;;1.15;;
37305;SDS011;23193;42.656;21.170;2022-12-11T03:52:31;5.15;;;2.13;;
37305;SDS011;23193;42.656;21.170;2022-12-11T03:54:59;3.50;;;1.55;;
37305;SDS011;23193;42.656;21.170;2022-12-11T03:57:28;4.20;;;1.88;;
37305;SDS011;23193;42.656;21.170;2022-12-11T03:59:54;2.47;;;1.58;;
37305;SDS011;23193;42.656;21.170;2022-12-11T04:02:28;2.67;;;1.23;;
37305;SDS011;23193;42.656;21.170;2022-12-11T04:04:54;1.88;;;1.27;;
37305;SDS011;23193;42.656;21.170;2022-12-11T04:07:21;1.88;;;1.30;;
37305;SDS011;23193;42.656;21.170;2022-12-11T04:09:47;3.25;;;1.30;;
37305;SDS011;23193;42.656;21.170;2022-12-11T04:12:13;4.30;;;1.77;;
37305;SDS011;23193;42.656;21.170;2022-12-11T04:14:39;1.92;;;1.42;;
37305;SDS011;23193;42.656;21.170;2022-12-11T04:17:24;2.28;;;1.52;;
37305;SDS011;23193;42.656;21.170;2022-12-11T04:20:09;6.10;;;2.17;;
37305;SDS011;23193;42.656;21.170;2022-12-11T04:22:53;4.40;;;2.03;;
37305;SDS011;23193;42.656;21.170;2022-12-11T04:25:38;5.43;;;2.40;;
37305;SDS011;23193;42.656;21.170;2022-12-11T04:28:04;3.67;;;2.05;;
37305;SDS011;23193;42.656;21.170;2022-12-11T04:30:30;2.70;;;2.08;;
37305;SDS011;23193;42.656;21.170;2022-12-11T04:32:56;4.45;;;2.13;;
37305;SDS011;23193;42.656;21.170;2022-12-11T04:35:22;6.78;;;3.33;;
37305;SDS011;23193;42.656;21.170;2022-12-11T04:37:48;5.82;;;2.45;;
37305;SDS011;23193;42.656;21.170;2022-12-11T04:40:15;5.32;;;1.60;;
37305;SDS011;23193;42.656;21.170;2022-12-11T04:42:42;3.15;;;1.83;;
37305;SDS011;23193;42.656;21.170;2022-12-11T04:45:08;2.95;;;1.60;;
37305;SDS011;23193;42.656;21.170;2022-12-11T04:47:35;4.68;;;1.33;;
37305;SDS011;23193;42.656;21.170;2022-12-11T04:50:03;2.40;;;1.35;;
37305;SDS011;23193;42.656;21.170;2022-12-11T04:52:29;2.10;;;1.40;;
37305;SDS011;23193;42.656;21.170;2022-12-11T04:54:56;2.85;;;1.15;;
37305;SDS011;23193;42.656;21.170;2022-12-11T04:57:22;3.03;;;1.50;;
37305;SDS011;23193;42.656;21.170;2022-12-11T04:59:48;2.63;;;1.60;;
37305;SDS011;23193;42.656;21.170;2022-12-11T05:02:15;2.80;;;1.40;;
37305;SDS011;23193;42.656;21.170;2022-12-11T05:04:41;3.50;;;1.30;;
37305;SDS011;23193;42.656;21.170;2022-12-11T05:07:07;4.13;;;1.42;;
37305;SDS011;23193;42.656;21.170;2022-12-11T05:09:33;1.95;;;1.45;;
37305;SDS011;23193;42.656;21.170;2022-12-11T05:12:00;2.70;;;1.70;;
37305;SDS011;23193;42.656;21.170;2022-12-11T05:14:26;4.10;;;1.70;;
37305;SDS011;23193;42.656;21.170;2022-12-11T05:16:55;4.18;;;1.70;;
37305;SDS011;23193;42.656;21.170;2022-12-11T05:19:21;2.72;;;1.70;;
37305;SDS011;23193;42.656;21.170;2022-12-11T05:21:47;5.07;;;2.00;;
37305;SDS011;23193;42.656;21.170;2022-12-11T05:24:13;2.83;;;1.50;;
37305;SDS011;23193;42.656;21.170;2022-12-11T05:26:40;2.83;;;1.52;;
37305;SDS011;23193;42.656;21.170;2022-12-11T05:29:06;3.42;;;2.00;;
37305;SDS011;23193;42.656;21.170;2022-12-11T05:31:32;5.10;;;1.88;;
37305;SDS011;23193;42.656;21.170;2022-12-11T05:33:58;4.65;;;1.73;;
37305;SDS011;23193;42.656;21.170;2022-12-11T05:38:51;1.70;;;1.20;;
37305;SDS011;23193;42.656;21.170;2022-12-11T05:41:18;5.82;;;1.40;;
37305;SDS011;23193;42.656;21.170;2022-12-11T05:43:44;3.85;;;1.50;;
37305;SDS011;23193;42.656;21.170;2022-12-11T05:46:32;7.18;;;2.50;;
37305;SDS011;23193;42.656;21.170;2022-12-11T05:48:58;5.07;;;1.00;;
37305;SDS011;23193;42.656;21.170;2022-12-11T05:51:25;7.18;;;1.00;;
37305;SDS011;23193;42.656;21.170;2022-12-11T05:53:51;2.95;;;1.00;;
37305;SDS011;23193;42.656;21.170;2022-12-11T05:56:24;1.77;;;0.93;;
37305;SDS011;23193;42.656;21.170;2022-12-11T05:58:51;3.00;;;0.95;;
37305;SDS011;23193;42.656;21.170;2022-12-11T06:01:24;1.85;;;1.00;;
37305;SDS011;23193;42.656;21.170;2022-12-11T06:03:51;1.80;;;1.10;;
37305;SDS011;23193;42.656;21.170;2022-12-11T06:06:17;1.38;;;1.02;;
37305;SDS011;23193;42.656;21.170;2022-12-11T06:08:44;1.70;;;0.77;;
37305;SDS011;23193;42.656;21.170;2022-12-11T06:11:13;1.80;;;1.00;;
37305;SDS011;23193;42.656;21.170;2022-12-11T06:13:39;1.00;;;0.80;;
37305;SDS011;23193;42.656;21.170;2022-12-11T06:16:06;4.03;;;0.95;;
37305;SDS011;23193;42.656;21.170;2022-12-11T06:18:39;2.40;;;1.27;;
37305;SDS011;23193;42.656;21.170;2022-12-11T06:21:25;3.95;;;2.00;;
37305;SDS011;23193;42.656;21.170;2022-12-11T06:23:52;3.50;;;2.05;;
37305;SDS011;23193;42.656;21.170;2022-12-11T06:26:18;4.20;;;2.13;;
37305;SDS011;23193;42.656;21.170;2022-12-11T06:28:45;4.28;;;1.92;;
37305;SDS011;23193;42.656;21.170;2022-12-11T06:31:11;6.20;;;1.90;;
37305;SDS011;23193;42.656;21.170;2022-12-11T06:33:37;2.63;;;1.65;;
37305;SDS011;23193;42.656;21.170;2022-12-11T06:36:04;3.45;;;1.92;;
37305;SDS011;23193;42.656;21.170;2022-12-11T06:38:30;6.82;;;2.42;;
37305;SDS011;23193;42.656;21.170;2022-12-11T06:40:57;3.70;;;1.80;;
37305;SDS011;23193;42.656;21.170;2022-12-11T06:43:24;3.83;;;2.08;;
37305;SDS011;23193;42.656;21.170;2022-12-11T06:45:50;3.55;;;1.95;;
37305;SDS011;23193;42.656;21.170;2022-12-11T06:48:17;7.78;;;3.22;;
37305;SDS011;23193;42.656;21.170;2022-12-11T06:50:43;3.55;;;2.00;;
37305;SDS011;23193;42.656;21.170;2022-12-11T06:53:10;4.30;;;1.70;;
37305;SDS011;23193;42.656;21.170;2022-12-11T06:55:36;5.32;;;2.53;;
37305;SDS011;23193;42.656;21.170;2022-12-11T06:58:02;2.38;;;1.20;;
37305;SDS011;23193;42.656;21.170;2022-12-11T07:00:31;4.53;;;1.83;;
37305;SDS011;23193;42.656;21.170;2022-12-11T07:02:57;5.65;;;2.45;;
37305;SDS011;23193;42.656;21.170;2022-12-11T07:05:23;4.15;;;2.80;;
37305;SDS011;23193;42.656;21.170;2022-12-11T07:07:49;4.45;;;1.75;;
37305;SDS011;23193;42.656;21.170;2022-12-11T07:10:17;16.65;;;8.55;;
37305;SDS011;23193;42.656;21.170;2022-12-11T07:12:43;35.58;;;16.10;;
37305;SDS011;23193;42.656;21.170;2022-12-11T07:15:09;20.10;;;9.70;;
37305;SDS011;23193;42.656;21.170;2022-12-11T07:17:35;10.18;;;3.90;;
37305;SDS011;23193;42.656;21.170;2022-12-11T07:20:02;4.45;;;2.55;;
37305;SDS011;23193;42.656;21.170;2022-12-11T07:22:28;3.58;;;1.90;;
37305;SDS011;23193;42.656;21.170;2022-12-11T07:24:54;4.00;;;2.08;;
37305;SDS011;23193;42.656;21.170;2022-12-11T07:27:20;4.47;;;2.00;;
37305;SDS011;23193;42.656;21.170;2022-12-11T07:29:46;5.30;;;2.80;;
37305;SDS011;23193;42.656;21.170;2022-12-11T07:32:12;4.00;;;2.50;;
37305;SDS011;23193;42.656;21.170;2022-12-11T07:34:38;9.23;;;3.17;;
37305;SDS011;23193;42.656;21.170;2022-12-11T07:37:05;7.28;;;2.10;;
37305;SDS011;23193;42.656;21.170;2022-12-11T07:39:31;7.05;;;2.50;;
37305;SDS011;23193;42.656;21.170;2022-12-11T07:41:57;5.05;;;2.63;;
37305;SDS011;23193;42.656;21.170;2022-12-11T07:44:23;6.75;;;2.50;;
37305;SDS011;23193;42.656;21.170;2022-12-11T07:46:49;4.40;;;2.58;;
37305;SDS011;23193;42.656;21.170;2022-12-11T07:49:15;5.70;;;2.70;;
37305;SDS011;23193;42.656;21.170;2022-12-11T07:51:42;5.50;;;2.90;;
37305;SDS011;23193;42.656;21.170;2022-12-11T07:54:10;5.10;;;3.25;;
37305;SDS011;23193;42.656;21.170;2022-12-11T07:59:05;8.15;;;4.65;;
37305;SDS011;23193;42.656;21.170;2022-12-11T08:01:32;14.80;;;7.70;;
37305;SDS011;23193;42.656;21.170;2022-12-11T08:04:00;42.55;;;19.90;;
37305;SDS011;23193;42.656;21.170;2022-12-11T08:06:28;18.40;;;9.23;;
37305;SDS011;23193;42.656;21.170;2022-12-11T08:08:55;9.80;;;5.22;;
37305;SDS011;23193;42.656;21.170;2022-12-11T08:11:22;13.40;;;6.28;;
37305;SDS011;23193;42.656;21.170;2022-12-11T08:13:48;7.88;;;4.57;;
37305;SDS011;23193;42.656;21.170;2022-12-11T08:16:16;7.47;;;4.55;;
37305;SDS011;23193;42.656;21.170;2022-12-11T08:18:43;9.35;;;4.55;;
37305;SDS011;23193;42.656;21.170;2022-12-11T08:21:13;7.03;;;4.07;;
37305;SDS011;23193;42.656;21.170;2022-12-11T08:23:39;8.25;;;3.95;;
37305;SDS011;23193;42.656;21.170;2022-12-11T08:26:07;8.07;;;4.43;;
37305;SDS011;23193;42.656;21.170;2022-12-11T08:28:33;6.38;;;4.45;;
37305;SDS011;23193;42.656;21.170;2022-12-11T08:30:59;19.95;;;12.50;;
37305;SDS011;23193;42.656;21.170;2022-12-11T08:33:28;18.30;;;11.43;;
37305;SDS011;23193;42.656;21.170;2022-12-11T08:35:54;57.33;;;30.92;;
37305;SDS011;23193;42.656;21.170;2022-12-11T08:38:20;57.20;;;31.90;;
37305;SDS011;23193;42.656;21.170;2022-12-11T08:40:46;79.32;;;43.08;;
37305;SDS011;23193;42.656;21.170;2022-12-11T08:43:12;52.92;;;29.35;;
37305;SDS011;23193;42.656;21.170;2022-12-11T08:45:38;71.50;;;39.22;;
37305;SDS011;23193;42.656;21.170;2022-12-11T08:48:04;113.93;;;66.22;;
37305;SDS011;23193;42.656;21.170;2022-12-11T08:50:30;121.57;;;77.88;;
37305;SDS011;23193;42.656;21.170;2022-12-11T08:52:56;70.60;;;45.13;;
37305;SDS011;23193;42.656;21.170;2022-12-11T08:55:22;40.05;;;30.35;;
37305;SDS011;23193;42.656;21.170;2022-12-11T08:57:48;25.52;;;16.77;;
37305;SDS011;23193;42.656;21.170;2022-12-11T09:00:15;27.00;;;16.30;;
37305;SDS011;23193;42.656;21.170;2022-12-11T09:02:42;30.27;;;17.50;;
37305;SDS011;23193;42.656;21.170;2022-12-11T09:05:08;25.23;;;14.98;;
37305;SDS011;23193;42.656;21.170;2022-12-11T09:07:35;47.22;;;23.73;;
37305;SDS011;23193;42.656;21.170;2022-12-11T09:10:04;41.67;;;25.00;;
37305;SDS011;23193;42.656;21.170;2022-12-11T09:12:31;38.92;;;19.25;;
37305;SDS011;23193;42.656;21.170;2022-12-11T09:14:58;27.40;;;14.38;;
37305;SDS011;23193;42.656;21.170;2022-12-11T09:17:24;36.80;;;23.20;;
37305;SDS011;23193;42.656;21.170;2022-12-11T09:19:50;27.80;;;16.45;;
37305;SDS011;23193;42.656;21.170;2022-12-11T09:22:16;25.52;;;13.55;;
37305;SDS011;23193;42.656;21.170;2022-12-11T09:24:42;28.10;;;14.23;;
37305;SDS011;23193;42.656;21.170;2022-12-11T09:27:08;13.63;;;7.90;;
37305;SDS011;23193;42.656;21.170;2022-12-11T09:29:34;14.95;;;7.18;;
37305;SDS011;23193;42.656;21.170;2022-12-11T09:32:00;19.40;;;10.50;;
37305;SDS011;23193;42.656;21.170;2022-12-11T09:34:26;33.03;;;16.58;;
37305;SDS011;23193;42.656;21.170;2022-12-11T09:36:52;32.45;;;20.33;;
37305;SDS011;23193;42.656;21.170;2022-12-11T09:39:18;23.63;;;13.15;;
37305;SDS011;23193;42.656;21.170;2022-12-11T09:46:55;43.05;;;23.55;;
37305;SDS011;23193;42.656;21.170;2022-12-11T09:49:32;51.50;;;28.30;;
37305;SDS011;23193;42.656;21.170;2022-12-11T09:54:47;32.95;;;19.13;;
37305;SDS011;23193;42.656;21.170;2022-12-11T10:02:21;44.00;;;18.90;;
37305;SDS011;23193;42.656;21.170;2022-12-11T10:07:19;32.10;;;19.45;;
37305;SDS011;23193;42.656;21.170;2022-12-11T10:12:29;161.65;;;81.70;;
37305;SDS011;23193;42.656;21.170;2022-12-11T10:15:04;243.27;;;127.82;;
37305;SDS011;23193;42.656;21.170;2022-12-11T10:17:35;519.15;;;243.65;;
37305;SDS011;23193;42.656;21.170;2022-12-11T10:20:21;33.92;;;19.80;;
37305;SDS011;23193;42.656;21.170;2022-12-11T10:22:51;23.80;;;13.52;;
37305;SDS011;23193;42.656;21.170;2022-12-11T10:25:23;16.52;;;10.05;;
37305;SDS011;23193;42.656;21.170;2022-12-11T10:27:50;18.67;;;9.07;;
37305;SDS011;23193;42.656;21.170;2022-12-11T10:32:53;17.30;;;9.50;;
37305;SDS011;23193;42.656;21.170;2022-12-11T10:35:26;20.67;;;10.93;;
37305;SDS011;23193;42.656;21.170;2022-12-11T10:37:54;22.25;;;11.48;;
37305;SDS011;23193;42.656;21.170;2022-12-11T10:40:23;21.08;;;10.25;;
37305;SDS011;23193;42.656;21.170;2022-12-11T10:42:51;21.40;;;12.05;;
37305;SDS011;23193;42.656;21.170;2022-12-11T10:45:17;21.67;;;12.65;;
37305;SDS011;23193;42.656;21.170;2022-12-11T10:47:43;18.42;;;11.25;;
37305;SDS011;23193;42.656;21.170;2022-12-11T10:50:24;22.88;;;13.88;;
37305;SDS011;23193;42.656;21.170;2022-12-11T10:52:50;18.13;;;10.88;;
37305;SDS011;23193;42.656;21.170;2022-12-11T10:55:24;19.80;;;11.30;;
37305;SDS011;23193;42.656;21.170;2022-12-11T10:58:11;16.67;;;9.52;;
37305;SDS011;23193;42.656;21.170;2022-12-11T11:00:43;10.20;;;6.72;;
37305;SDS011;23193;42.656;21.170;2022-12-11T11:03:22;11.00;;;5.90;;
37305;SDS011;23193;42.656;21.170;2022-12-11T11:05:49;13.35;;;5.97;;
37305;SDS011;23193;42.656;21.170;2022-12-11T11:08:19;13.30;;;7.32;;
37305;SDS011;23193;42.656;21.170;2022-12-11T11:10:53;19.73;;;11.10;;
37305;SDS011;23193;42.656;21.170;2022-12-11T11:13:20;18.23;;;8.50;;
37305;SDS011;23193;42.656;21.170;2022-12-11T11:15:46;9.77;;;5.30;;
37305;SDS011;23193;42.656;21.170;2022-12-11T11:18:15;12.02;;;6.75;;
37305;SDS011;23193;42.656;21.170;2022-12-11T11:20:46;13.00;;;7.35;;
37305;SDS011;23193;42.656;21.170;2022-12-11T11:23:13;21.35;;;11.07;;
37305;SDS011;23193;42.656;21.170;2022-12-11T11:25:47;24.20;;;12.27;;
37305;SDS011;23193;42.656;21.170;2022-12-11T11:28:20;20.50;;;11.27;;
37305;SDS011;23193;42.656;21.170;2022-12-11T11:31:00;32.78;;;12.43;;
37305;SDS011;23193;42.656;21.170;2022-12-11T11:33:28;21.33;;;10.85;;
37305;SDS011;23193;42.656;21.170;2022-12-11T11:35:55;88.28;;;49.47;;
37305;SDS011;23193;42.656;21.170;2022-12-11T11:43:31;22.98;;;11.90;;
37305;SDS011;23193;42.656;21.170;2022-12-11T11:53:52;29.83;;;15.02;;
37305;SDS011;23193;42.656;21.170;2022-12-11T12:01:15;14.68;;;8.70;;
37305;SDS011;23193;42.656;21.170;2022-12-11T12:03:42;15.48;;;8.80;;
37305;SDS011;23193;42.656;21.170;2022-12-11T12:06:25;17.85;;;10.30;;
37305;SDS011;23193;42.656;21.170;2022-12-11T12:21:46;8.05;;;5.60;;
37305;SDS011;23193;42.656;21.170;2022-12-11T12:26:56;14.07;;;8.32;;
37305;SDS011;23193;42.656;21.170;2022-12-11T12:34:54;18.48;;;10.20;;
37305;SDS011;23193;42.656;21.170;2022-12-11T12:47:45;26.85;;;12.18;;
37305;SDS011;23193;42.656;21.170;2022-12-11T12:50:19;15.68;;;10.15;;
37305;SDS011;23193;42.656;21.170;2022-12-11T12:52:46;13.38;;;6.90;;
37305;SDS011;23193;42.656;21.170;2022-12-11T12:57:56;11.88;;;6.63;;
37305;SDS011;23193;42.656;21.170;2022-12-11T13:00:45;12.63;;;7.28;;
37305;SDS011;23193;42.656;21.170;2022-12-11T13:05:40;12.65;;;6.85;;
37305;SDS011;23193;42.656;21.170;2022-12-11T13:08:06;15.43;;;7.40;;
37305;SDS011;23193;42.656;21.170;2022-12-11T13:10:36;13.65;;;7.03;;
37305;SDS011;23193;42.656;21.170;2022-12-11T13:15:40;16.38;;;7.57;;
37305;SDS011;23193;42.656;21.170;2022-12-11T13:20:54;19.85;;;10.05;;
37305;SDS011;23193;42.656;21.170;2022-12-11T13:23:28;13.38;;;8.13;;
37305;SDS011;23193;42.656;21.170;2022-12-11T13:25:58;11.00;;;6.72;;
37305;SDS011;23193;42.656;21.170;2022-12-11T13:33:48;19.67;;;9.73;;
37305;SDS011;23193;42.656;21.170;2022-12-11T13:38:45;19.85;;;10.13;;
37305;SDS011;23193;42.656;21.170;2022-12-11T13:41:11;23.08;;;11.93;;
37305;SDS011;23193;42.656;21.170;2022-12-11T13:43:38;27.02;;;13.43;;
37305;SDS011;23193;42.656;21.170;2022-12-11T13:46:09;23.15;;;11.57;;
37305;SDS011;23193;42.656;21.170;2022-12-11T13:48:37;24.35;;;14.13;;
37305;SDS011;23193;42.656;21.170;2022-12-11T13:51:05;24.77;;;13.63;;
37305;SDS011;23193;42.656;21.170;2022-12-11T13:53:31;25.88;;;13.40;;
37305;SDS011;23193;42.656;21.170;2022-12-11T13:55:58;24.20;;;13.65;;
37305;SDS011;23193;42.656;21.170;2022-12-11T13:58:24;41.55;;;22.75;;
37305;SDS011;23193;42.656;21.170;2022-12-11T14:01:03;48.45;;;26.05;;
37305;SDS011;23193;42.656;21.170;2022-12-11T14:03:31;45.65;;;23.67;;
37305;SDS011;23193;42.656;21.170;2022-12-11T14:05:58;59.05;;;28.00;;
37305;SDS011;23193;42.656;21.170;2022-12-11T14:08:26;53.92;;;28.17;;
37305;SDS011;23193;42.656;21.170;2022-12-11T14:10:54;46.67;;;23.75;;
37305;SDS011;23193;42.656;21.170;2022-12-11T14:15:46;37.60;;;19.35;;
37305;SDS011;23193;42.656;21.170;2022-12-11T14:18:16;32.42;;;17.25;;
37305;SDS011;23193;42.656;21.170;2022-12-11T14:20:43;33.53;;;20.38;;
37305;SDS011;23193;42.656;21.170;2022-12-11T14:23:19;35.50;;;17.05;;
37305;SDS011;23193;42.656;21.170;2022-12-11T14:25:52;32.55;;;17.38;;
37305;SDS011;23193;42.656;21.170;2022-12-11T14:28:19;34.00;;;17.48;;
37305;SDS011;23193;42.656;21.170;2022-12-11T14:30:49;27.83;;;15.35;;
37305;SDS011;23193;42.656;21.170;2022-12-11T14:33:16;26.70;;;15.68;;
37305;SDS011;23193;42.656;21.170;2022-12-11T14:35:45;18.25;;;10.68;;
37305;SDS011;23193;42.656;21.170;2022-12-11T14:40:44;23.67;;;13.70;;
37305;SDS011;23193;42.656;21.170;2022-12-11T14:43:13;22.25;;;12.05;;
37305;SDS011;23193;42.656;21.170;2022-12-11T14:45:43;30.85;;;18.20;;
37305;SDS011;23193;42.656;21.170;2022-12-11T14:48:18;41.88;;;21.15;;
37305;SDS011;23193;42.656;21.170;2022-12-11T14:50:52;72.55;;;28.15;;
37305;SDS011;23193;42.656;21.170;2022-12-11T14:53:25;57.97;;;23.10;;
37305;SDS011;23193;42.656;21.170;2022-12-11T14:55:52;44.55;;;19.52;;
37305;SDS011;23193;42.656;21.170;2022-12-11T15:00:54;48.15;;;21.05;;
37305;SDS011;23193;42.656;21.170;2022-12-11T15:03:21;42.55;;;21.67;;
37305;SDS011;23193;42.656;21.170;2022-12-11T15:05:55;64.47;;;27.40;;
37305;SDS011;23193;42.656;21.170;2022-12-11T15:08:32;54.00;;;26.80;;
37305;SDS011;23193;42.656;21.170;2022-12-11T15:13:30;55.28;;;25.40;;
37305;SDS011;23193;42.656;21.170;2022-12-11T15:15:57;66.32;;;27.20;;
37305;SDS011;23193;42.656;21.170;2022-12-11T15:18:26;52.80;;;23.75;;
37305;SDS011;23193;42.656;21.170;2022-12-11T15:21:03;49.03;;;24.08;;
37305;SDS011;23193;42.656;21.170;2022-12-11T15:23:31;37.90;;;19.92;;
37305;SDS011;23193;42.656;21.170;2022-12-11T15:25:59;47.83;;;25.30;;
37305;SDS011;23193;42.656;21.170;2022-12-11T15:28:33;51.67;;;27.65;;
37305;SDS011;23193;42.656;21.170;2022-12-11T15:31:02;46.22;;;22.48;;
37305;SDS011;23193;42.656;21.170;2022-12-11T15:33:28;47.35;;;25.58;;
37305;SDS011;23193;42.656;21.170;2022-12-11T15:35:59;57.70;;;30.27;;
37305;SDS011;23193;42.656;21.170;2022-12-11T15:38:30;49.80;;;26.30;;
37305;SDS011;23193;42.656;21.170;2022-12-11T15:40:57;38.75;;;20.55;;
37305;SDS011;23193;42.656;21.170;2022-12-11T15:43:23;30.95;;;16.70;;
37305;SDS011;23193;42.656;21.170;2022-12-11T15:45:49;39.10;;;19.75;;
37305;SDS011;23193;42.656;21.170;2022-12-11T15:48:15;33.67;;;16.33;;
37305;SDS011;23193;42.656;21.170;2022-12-11T15:50:41;38.03;;;20.00;;
37305;SDS011;23193;42.656;21.170;2022-12-11T15:53:08;38.20;;;20.55;;
37305;SDS011;23193;42.656;21.170;2022-12-11T15:55:34;47.03;;;21.50;;
37305;SDS011;23193;42.656;21.170;2022-12-11T15:58:02;33.45;;;18.02;;
37305;SDS011;23193;42.656;21.170;2022-12-11T16:00:29;35.72;;;18.02;;
37305;SDS011;23193;42.656;21.170;2022-12-11T16:02:55;48.42;;;25.00;;
37305;SDS011;23193;42.656;21.170;2022-12-11T16:05:22;52.17;;;29.73;;
37305;SDS011;23193;42.656;21.170;2022-12-11T16:07:48;53.47;;;28.95;;
37305;SDS011;23193;42.656;21.170;2022-12-11T16:10:17;47.65;;;25.17;;
37305;SDS011;23193;42.656;21.170;2022-12-11T16:12:43;35.15;;;19.48;;
37305;SDS011;23193;42.656;21.170;2022-12-11T16:15:12;32.35;;;18.58;;
37305;SDS011;23193;42.656;21.170;2022-12-11T16:17:39;40.97;;;21.55;;
37305;SDS011;23193;42.656;21.170;2022-12-11T16:20:05;34.78;;;20.52;;
37305;SDS011;23193;42.656;21.170;2022-12-11T16:22:32;52.10;;;25.52;;
37305;SDS011;23193;42.656;21.170;2022-12-11T16:24:58;45.67;;;21.17;;
37305;SDS011;23193;42.656;21.170;2022-12-11T16:27:24;44.75;;;23.70;;
37305;SDS011;23193;42.656;21.170;2022-12-11T16:29:50;83.97;;;42.28;;
37305;SDS011;23193;42.656;21.170;2022-12-11T16:32:16;69.80;;;35.10;;